Time;durP1;ratioP1;P1;durP2;ratioP2;P2;SDS_P1;SDS_P2;PMS_P1;PMS_P2;Temp;Humidity;BMP_temperature;BMP_pressure;BME280_temperature;BME280_humidity;BME280_pressure;Samples;Min_cycle;Max_cycle;Signal;HPM_P1;HPM_P2
2023/01/16 00:01:56;;;;;;;5.80;4.82;;;;;;;3.58;100.00;99550.69;4951855;28;20047;-78
2023/01/16 00:04:25;;;;;;;9.40;5.20;;;;;;;3.58;100.00;99547.22;4924955;28;20055;-78
2023/01/16 00:06:53;;;;;;;5.85;4.25;;;;;;;3.57;100.00;99542.84;4946333;28;20051;-77
2023/01/16 00:09:20;;;;;;;7.13;5.18;;;;;;;3.56;100.00;99546.31;4965176;28;20051;-77
2023/01/16 00:11:48;;;;;;;7.93;4.45;;;;;;;3.50;100.00;99532.38;4950881;28;20063;-78
2023/01/16 00:14:15;;;;;;;6.13;4.25;;;;;;;3.47;100.00;99529.72;4942958;28;20066;-78
2023/01/16 00:16:42;;;;;;;4.55;4.15;;;;;;;3.44;100.00;99529.72;4958190;28;20537;-78
2023/01/16 00:19:10;;;;;;;5.32;4.70;;;;;;;3.43;100.00;99532.28;4958034;28;20039;-78
2023/01/16 00:21:37;;;;;;;8.65;4.88;;;;;;;3.43;100.00;99532.28;4922401;28;20044;-77
2023/01/16 00:24:06;;;;;;;12.02;5.60;;;;;;;3.43;100.00;99530.53;4964404;28;20055;-78
2023/01/16 00:26:33;;;;;;;8.57;5.63;;;;;;;3.45;100.00;99531.44;4938150;28;20048;-78
2023/01/16 00:29:02;;;;;;;7.82;5.60;;;;;;;3.46;100.00;99530.59;4926369;29;20031;-79
2023/01/16 00:31:29;;;;;;;6.95;4.80;;;;;;;3.48;100.00;99526.28;4956635;28;20054;-77
2023/01/16 00:33:57;;;;;;;7.25;4.28;;;;;;;3.49;100.00;99528.00;4949247;28;20058;-78
2023/01/16 00:36:24;;;;;;;6.72;5.05;;;;;;;3.51;100.00;99528.03;4903131;28;20051;-78
2023/01/16 00:38:51;;;;;;;6.25;4.97;;;;;;;3.53;100.00;99512.41;4930286;29;20087;-78
2023/01/16 00:41:19;;;;;;;8.45;4.80;;;;;;;3.53;100.00;99518.50;4930244;29;20058;-78
2023/01/16 00:43:46;;;;;;;7.97;4.50;;;;;;;3.55;100.00;99514.16;4939267;29;20055;-78
2023/01/16 00:46:14;;;;;;;7.15;4.15;;;;;;;3.57;100.00;99509.84;4940532;28;20066;-78
2023/01/16 00:48:43;;;;;;;6.60;4.35;;;;;;;3.56;100.00;99515.06;4947806;29;20052;-78
2023/01/16 00:51:10;;;;;;;8.27;4.25;;;;;;;3.56;100.00;99515.94;4910182;28;20059;-78
2023/01/16 00:53:37;;;;;;;5.93;4.55;;;;;;;3.56;100.00;99496.84;4935951;29;20051;-77
2023/01/16 00:56:05;;;;;;;5.43;3.97;;;;;;;3.57;100.00;99501.16;4945881;29;20054;-78
2023/01/16 00:58:32;;;;;;;4.95;3.80;;;;;;;3.57;100.00;99498.56;4933132;28;20047;-77
2023/01/16 01:01:00;;;;;;;5.65;3.80;;;;;;;3.57;100.00;99494.22;4959427;28;20039;-77
2023/01/16 01:03:28;;;;;;;5.80;3.55;;;;;;;3.57;100.00;99488.13;4950765;28;20050;-78
2023/01/16 01:05:56;;;;;;;6.80;3.90;;;;;;;3.58;100.00;99484.69;4901973;28;20047;-78
2023/01/16 01:08:23;;;;;;;4.38;3.40;;;;;;;3.57;100.00;99475.97;4910182;29;20050;-78
2023/01/16 01:10:50;;;;;;;6.13;3.90;;;;;;;3.55;100.00;99474.22;4935948;29;20066;-78
2023/01/16 01:13:18;;;;;;;7.75;3.35;;;;;;;3.55;100.00;99472.50;4947237;29;20421;-78
2023/01/16 01:15:45;;;;;;;6.03;3.50;;;;;;;3.54;100.00;99472.50;4927394;29;20051;-78
2023/01/16 01:18:12;;;;;;;4.50;3.10;;;;;;;3.52;100.00;99467.28;4939153;28;20051;-78
2023/01/16 01:20:39;;;;;;;7.82;3.50;;;;;;;3.49;100.00;99469.84;4921142;29;20105;-77
2023/01/16 01:23:07;;;;;;;7.70;3.20;;;;;;;3.47;100.00;99467.22;4916815;28;20051;-77
2023/01/16 01:25:37;;;;;;;4.72;2.80;;;;;;;3.44;100.00;99454.19;4952438;28;20054;-77
2023/01/16 01:28:05;;;;;;;6.00;3.22;;;;;;;3.39;100.00;99442.84;4934841;29;20051;-78
2023/01/16 01:30:32;;;;;;;7.00;2.92;;;;;;;3.35;100.00;99437.59;4929410;28;20047;-77
2023/01/16 01:33:00;;;;;;;6.78;2.97;;;;;;;3.29;100.00;99433.19;4943015;28;20054;-77
2023/01/16 01:35:27;;;;;;;5.72;2.85;;;;;;;3.23;100.00;99418.41;4942032;29;20058;-77
2023/01/16 01:37:55;;;;;;;8.85;3.67;;;;;;;3.16;100.00;99421.78;4860057;29;20417;-77
2023/01/16 01:40:22;;;;;;;7.78;3.05;;;;;;;3.09;100.00;99420.84;4930707;29;20052;-77
2023/01/16 01:42:53;;;;;;;6.47;3.00;;;;;;;3.03;100.00;99412.09;4942959;28;20047;-76
2023/01/16 01:45:29;;;;;;;7.00;3.00;;;;;;;2.98;100.00;99414.63;4905794;28;20051;-77
2023/01/16 01:48:03;;;;;;;4.45;3.17;;;;;;;2.96;100.00;99410.28;4952861;28;20043;-77
2023/01/16 01:50:46;;;;;;;9.65;3.10;;;;;;;2.96;100.00;99410.28;4930004;28;20420;-78
2023/01/16 01:53:26;;;;;;;7.30;2.90;;;;;;;2.96;100.00;99411.16;4900324;28;20051;-78
2023/01/16 01:55:56;;;;;;;4.63;2.95;;;;;;;2.97;100.00;99405.09;4950967;28;20058;-78
2023/01/16 01:58:26;;;;;;;5.47;3.22;;;;;;;2.98;100.00;99393.81;4952660;28;20082;-78
2023/01/16 02:00:59;;;;;;;7.15;3.25;;;;;;;2.99;100.00;99390.38;4943930;28;20049;-77
2023/01/16 02:03:45;;;;;;;4.70;2.95;;;;;;;3.01;100.00;99382.59;4938404;28;20047;-79
2023/01/16 02:06:19;;;;;;;6.65;2.75;;;;;;;3.01;100.00;99386.06;4915859;28;20042;-77
2023/01/16 02:08:50;;;;;;;9.00;2.85;;;;;;;3.02;100.00;99382.59;4917588;28;20060;-77
2023/01/16 02:11:32;;;;;;;7.35;2.67;;;;;;;3.03;100.00;99376.53;4946756;28;20074;-78
2023/01/16 02:14:09;;;;;;;9.82;3.05;;;;;;;3.04;100.00;99375.66;4914597;29;20413;-78
2023/01/16 02:19:45;;;;;;;7.00;4.20;;;;;;;3.05;100.00;99372.22;4939228;28;20069;-78
2023/01/16 02:22:34;;;;;;;12.38;5.07;;;;;;;3.05;100.00;99354.00;4951982;28;20026;-78
2023/01/16 02:25:35;;;;;;;9.85;5.40;;;;;;;3.07;100.00;99346.22;4911620;29;20059;-78
2023/01/16 02:28:06;;;;;;;9.48;6.22;;;;;;;3.09;100.00;99349.69;4943514;29;20048;-78
2023/01/16 02:30:52;;;;;;;11.50;6.03;;;;;;;3.10;100.00;99341.91;4946373;29;20390;-78
2023/01/16 02:33:31;;;;;;;7.20;5.60;;;;;;;3.11;100.00;99341.03;4927685;28;20059;-78
2023/01/16 02:36:02;;;;;;;10.25;5.68;;;;;;;3.14;100.00;99332.41;4943899;28;20401;-78
2023/01/16 02:38:44;;;;;;;8.07;5.00;;;;;;;3.14;100.00;99316.78;4914162;28;20055;-78
2023/01/16 02:41:41;;;;;;;12.10;4.80;;;;;;;3.14;100.00;99311.56;4918531;29;20055;-77
2023/01/16 02:44:38;;;;;;;9.98;5.07;;;;;;;3.15;100.00;99318.50;4945077;29;20043;-78
2023/01/16 02:47:11;;;;;;;7.55;4.90;;;;;;;3.17;100.00;99313.31;4945449;29;20050;-78
2023/01/16 02:50:02;;;;;;;13.10;5.05;;;;;;;3.17;100.00;99310.72;4935604;28;20047;-78
2023/01/16 02:52:35;;;;;;;7.20;4.47;;;;;;;3.17;100.00;99300.31;4926420;28;20047;-78
2023/01/16 02:55:20;;;;;;;6.05;4.00;;;;;;;3.20;100.00;99305.56;4930138;28;20055;-78
2023/01/16 02:57:55;;;;;;;8.63;4.68;;;;;;;3.19;100.00;99294.25;4955803;29;20062;-78
2023/01/16 03:00:23;;;;;;;7.85;4.50;;;;;;;3.19;100.00;99286.44;4952042;29;20059;-78
2023/01/16 03:02:50;;;;;;;9.15;4.25;;;;;;;3.19;100.00;99289.03;4942931;28;20074;-78
2023/01/16 03:05:18;;;;;;;9.18;4.65;;;;;;;3.20;100.00;99279.53;4962998;28;20074;-78
2023/01/16 03:08:13;;;;;;;6.95;4.32;;;;;;;3.19;100.00;99268.22;4943300;28;20054;-78
2023/01/16 03:10:55;;;;;;;13.00;5.15;;;;;;;3.21;100.00;99257.81;4943593;29;20497;-78
2023/01/16 03:13:28;;;;;;;6.40;3.67;;;;;;;3.22;100.00;99262.19;4950632;29;20043;-78
2023/01/16 03:16:13;;;;;;;10.52;4.15;;;;;;;3.24;100.00;99255.25;4961759;28;20066;-78
2023/01/16 03:19:09;;;;;;;8.57;3.70;;;;;;;3.26;100.00;99248.31;4943169;28;20047;-78
2023/01/16 03:21:37;;;;;;;9.43;3.75;;;;;;;3.26;100.00;99243.09;4968805;28;20058;-78
2023/01/16 03:24:27;;;;;;;4.05;3.55;;;;;;;3.28;100.00;99244.00;4917701;28;20047;-77
2023/01/16 03:27:19;;;;;;;5.07;2.53;;;;;;;3.28;100.00;99242.25;4947930;29;20075;-78
2023/01/16 03:30:07;;;;;;;4.35;3.05;;;;;;;3.28;100.00;99231.84;4945586;29;20492;-78
2023/01/16 03:32:45;;;;;;;7.43;2.80;;;;;;;3.30;100.00;99227.50;4958583;28;20063;-78
2023/01/16 03:35:18;;;;;;;6.63;2.22;;;;;;;3.32;100.00;99222.31;4944581;28;20512;-78
2023/01/16 03:37:54;;;;;;;6.85;2.17;;;;;;;3.34;100.00;99228.41;4957650;28;20051;-78
2023/01/16 03:40:26;;;;;;;4.60;1.90;;;;;;;3.35;100.00;99222.34;4939703;28;20058;-78
2023/01/16 03:43:14;;;;;;;5.40;2.17;;;;;;;3.39;100.00;99218.91;4955817;28;20047;-78
2023/01/16 03:45:52;;;;;;;5.55;2.20;;;;;;;3.39;100.00;99218.91;4962375;28;20054;-78
2023/01/16 03:48:47;;;;;;;6.18;2.45;;;;;;;3.40;100.00;99199.78;4941604;29;20086;-78
2023/01/16 03:51:24;;;;;;;5.55;2.42;;;;;;;3.39;100.00;99200.66;4939992;28;20047;-78
2023/01/16 03:54:21;;;;;;;9.00;2.00;;;;;;;3.39;100.00;99198.06;4927909;28;20038;-78
2023/01/16 03:56:56;;;;;;;8.65;2.10;;;;;;;3.40;100.00;99194.56;4941716;28;20741;-78
2023/01/16 03:59:24;;;;;;;8.50;2.00;;;;;;;3.41;100.00;99191.13;4969661;28;20050;-78
2023/01/16 04:02:01;;;;;;;5.53;2.00;;;;;;;3.43;100.00;99178.13;4944849;28;20058;-78
2023/01/16 04:04:40;;;;;;;7.00;1.95;;;;;;;3.43;100.00;99175.53;4975486;28;20055;-78
2023/01/16 04:07:17;;;;;;;4.63;2.38;;;;;;;3.45;100.00;99176.41;4947520;28;20039;-78
2023/01/16 04:09:53;;;;;;;6.63;2.53;;;;;;;3.49;100.00;99167.72;4924481;28;20051;-78
2023/01/16 04:12:25;;;;;;;7.03;2.40;;;;;;;3.50;100.00;99169.47;4952805;29;20066;-78
2023/01/16 04:14:58;;;;;;;5.13;2.15;;;;;;;3.51;100.00;99161.66;4953824;28;20046;-78
2023/01/16 04:17:28;;;;;;;5.72;2.67;;;;;;;3.51;100.00;99156.44;4953271;29;20055;-78
2023/01/16 04:19:56;;;;;;;3.67;2.10;;;;;;;3.53;100.00;99161.66;4962059;28;20050;-78
2023/01/16 04:22:26;;;;;;;6.30;2.58;;;;;;;3.54;100.00;99159.94;4953297;28;20411;-78
2023/01/16 04:24:57;;;;;;;7.28;2.50;;;;;;;3.51;100.00;99156.44;4912202;29;20448;-79
2023/01/16 04:27:24;;;;;;;6.50;2.33;;;;;;;3.53;100.00;99158.19;4940218;28;20536;-79
2023/01/16 04:29:53;;;;;;;19.48;3.72;;;;;;;3.53;100.00;99156.44;4947776;28;20066;-77
2023/01/16 04:32:21;;;;;;;6.97;2.60;;;;;;;3.52;100.00;99152.13;4941217;28;20054;-77
2023/01/16 04:34:48;;;;;;;7.30;3.08;;;;;;;3.52;100.00;99154.72;4959481;28;20055;-77
2023/01/16 04:37:18;;;;;;;9.43;2.88;;;;;;;3.52;100.00;99152.13;4908755;28;20501;-77
2023/01/16 04:39:47;;;;;;;5.18;2.65;;;;;;;3.52;100.00;99146.91;4949964;28;20042;-77
2023/01/16 04:42:15;;;;;;;5.60;3.13;;;;;;;3.53;100.00;99134.75;4914389;29;20544;-77
2023/01/16 04:44:42;;;;;;;7.70;2.92;;;;;;;3.50;100.00;99139.09;4942983;28;20046;-77
2023/01/16 04:47:10;;;;;;;4.78;3.20;;;;;;;3.51;100.00;99142.56;4947408;29;20043;-78
2023/01/16 04:49:38;;;;;;;5.55;3.05;;;;;;;3.51;100.00;99130.41;4952289;28;20066;-78
2023/01/16 04:52:05;;;;;;;10.77;4.47;;;;;;;3.51;100.00;99140.81;4938407;28;20047;-76
2023/01/16 04:54:32;;;;;;;7.20;3.15;;;;;;;3.51;100.00;99130.41;4914938;29;20648;-77
2023/01/16 04:57:01;;;;;;;5.30;3.38;;;;;;;3.51;100.00;99122.59;4901742;28;20053;-77
2023/01/16 04:59:28;;;;;;;7.28;4.07;;;;;;;3.52;100.00;99118.28;4950851;28;20511;-78
2023/01/16 05:01:56;;;;;;;5.10;3.08;;;;;;;3.51;100.00;99116.50;4921371;28;20050;-77
2023/01/16 05:04:23;;;;;;;5.22;3.72;;;;;;;3.51;100.00;99122.59;4949761;28;20519;-79
2023/01/16 05:06:50;;;;;;;7.07;3.15;;;;;;;3.51;100.00;99112.16;4942764;28;20051;-78
2023/01/16 05:09:18;;;;;;;6.95;3.40;;;;;;;3.52;100.00;99107.84;4939712;28;20046;-79
2023/01/16 05:11:45;;;;;;;4.97;3.17;;;;;;;3.49;100.00;99092.19;4928951;28;20051;-78
2023/01/16 05:14:13;;;;;;;6.22;3.35;;;;;;;3.45;100.00;99083.50;4949340;28;20047;-79
2023/01/16 05:16:42;;;;;;;7.90;3.80;;;;;;;3.41;100.00;99089.56;4960424;28;20054;-78
2023/01/16 05:19:10;;;;;;;10.70;3.90;;;;;;;3.36;100.00;99091.28;4919514;29;20055;-79
2023/01/16 05:21:37;;;;;;;10.75;3.70;;;;;;;3.33;100.00;99083.47;4926464;29;20063;-77
2023/01/16 05:24:05;;;;;;;9.45;3.75;;;;;;;3.30;100.00;99075.63;4946756;28;20055;-78
2023/01/16 05:26:38;;;;;;;11.00;3.95;;;;;;;3.24;100.00;99060.00;4955105;28;20050;-78
2023/01/16 05:29:06;;;;;;;8.68;3.80;;;;;;;3.20;100.00;99055.66;4922633;28;20054;-78
2023/01/16 05:31:34;;;;;;;5.68;3.72;;;;;;;3.15;100.00;99036.53;4938777;28;20050;-78
2023/01/16 05:34:03;;;;;;;8.45;4.05;;;;;;;3.11;100.00;99041.72;4969355;28;20477;-78
2023/01/16 05:36:31;;;;;;;5.60;4.28;;;;;;;3.05;100.00;99031.28;4920300;29;20047;-78
2023/01/16 05:38:58;;;;;;;8.15;3.88;;;;;;;3.03;100.00;99038.22;4956198;28;20049;-78
2023/01/16 05:41:26;;;;;;;5.57;4.00;;;;;;;3.01;100.00;99036.50;4952456;28;20531;-78
2023/01/16 05:43:54;;;;;;;9.35;4.40;;;;;;;2.99;100.00;99031.28;4913706;28;20050;-78
2023/01/16 05:46:21;;;;;;;11.00;4.25;;;;;;;2.99;100.00;99025.22;4950925;28;20933;-79
2023/01/16 05:48:48;;;;;;;10.23;4.55;;;;;;;3.01;100.00;99013.94;4942652;28;20062;-77
2023/01/16 05:51:16;;;;;;;10.73;4.40;;;;;;;3.01;100.00;99008.72;4931247;29;20058;-79
2023/01/16 05:53:49;;;;;;;7.68;4.35;;;;;;;3.03;100.00;99001.78;4916414;29;20052;-78
2023/01/16 05:56:25;;;;;;;7.75;4.25;;;;;;;3.04;100.00;98992.25;4942378;28;20141;-77
2023/01/16 05:58:53;;;;;;;8.68;4.88;;;;;;;3.06;100.00;98990.50;4899701;29;20051;-77
2023/01/16 06:01:21;;;;;;;8.85;4.40;;;;;;;3.05;100.00;98979.25;4943128;28;20071;-78
2023/01/16 06:03:48;;;;;;;6.28;4.53;;;;;;;3.05;100.00;98971.44;4911073;28;20508;-79
2023/01/16 06:06:15;;;;;;;6.65;4.70;;;;;;;3.04;100.00;98964.47;4956441;28;20057;-79
2023/01/16 06:08:46;;;;;;;7.90;5.25;;;;;;;3.03;100.00;98961.91;4943374;28;20051;-78
2023/01/16 06:11:13;;;;;;;9.85;4.93;;;;;;;3.02;100.00;98954.94;4951236;28;20039;-78
2023/01/16 06:13:41;;;;;;;16.48;8.00;;;;;;;3.01;100.00;98961.03;4948340;28;20058;-77
2023/01/16 06:16:08;;;;;;;11.55;5.88;;;;;;;2.98;100.00;98959.25;4916057;28;20070;-78
2023/01/16 06:18:35;;;;;;;10.00;6.05;;;;;;;2.97;100.00;98965.34;4941466;28;20050;-77
2023/01/16 06:21:03;;;;;;;8.48;6.50;;;;;;;2.94;100.00;98952.31;4947639;28;20058;-76
2023/01/16 06:23:30;;;;;;;10.85;6.97;;;;;;;2.93;100.00;98953.19;4940170;28;20039;-78
2023/01/16 06:25:59;;;;;;;7.80;6.47;;;;;;;2.91;100.00;98949.69;4945211;28;20067;-77
2023/01/16 06:28:27;;;;;;;13.50;7.20;;;;;;;2.88;100.00;98940.16;4968096;28;20050;-78
2023/01/16 06:30:54;;;;;;;10.63;6.57;;;;;;;2.86;100.00;98948.81;4914697;28;20629;-79
2023/01/16 06:33:21;;;;;;;10.20;6.95;;;;;;;2.84;100.00;98937.53;4930611;28;20362;-78
2023/01/16 06:35:49;;;;;;;19.48;7.97;;;;;;;2.80;100.00;98956.59;4961303;28;20051;-77
2023/01/16 06:38:16;;;;;;;14.20;8.10;;;;;;;2.77;100.00;98951.38;4940508;28;20484;-77
2023/01/16 06:40:44;;;;;;;14.35;7.07;;;;;;;2.77;100.00;98946.19;4937375;29;20047;-77
2023/01/16 06:43:11;;;;;;;17.05;8.05;;;;;;;2.79;100.00;98949.66;4933547;28;20070;-77
2023/01/16 06:45:39;;;;;;;10.32;7.25;;;;;;;2.82;100.00;98945.34;4934046;28;20069;-78
2023/01/16 06:48:06;;;;;;;8.85;7.18;;;;;;;2.84;100.00;98934.94;4905093;28;20519;-78
2023/01/16 06:50:34;;;;;;;14.30;8.10;;;;;;;2.87;100.00;98937.53;4932229;28;20533;-80
2023/01/16 06:53:01;;;;;;;11.45;6.90;;;;;;;2.90;100.00;98937.56;4931316;28;20047;-79
2023/01/16 06:55:29;;;;;;;11.68;8.00;;;;;;;2.90;100.00;98933.22;4950571;28;20055;-78
2023/01/16 06:57:56;;;;;;;11.98;7.65;;;;;;;2.89;100.00;98936.69;4941871;28;20054;-79
2023/01/16 07:00:24;;;;;;;12.95;8.55;;;;;;;2.86;100.00;98926.28;4944822;28;20068;-79
2023/01/16 07:02:54;;;;;;;15.40;9.48;;;;;;;2.85;100.00;98918.44;4916271;28;20050;-79
2023/01/16 07:05:27;;;;;;;13.85;8.57;;;;;;;2.84;100.00;98914.13;4955156;28;20077;-78
2023/01/16 07:07:55;;;;;;;15.43;10.15;;;;;;;2.82;100.00;98902.84;4949486;28;20851;-78
2023/01/16 07:10:23;;;;;;;16.35;10.77;;;;;;;2.82;100.00;98898.50;4948613;28;20059;-79
2023/01/16 07:12:52;;;;;;;19.10;10.65;;;;;;;2.79;100.00;98888.09;4919597;28;20054;-80
2023/01/16 07:24:10;;;;;;;16.45;9.50;;;;;;;2.72;100.00;98868.13;4909409;28;20063;-78
2023/01/16 07:26:43;;;;;;;15.85;11.07;;;;;;;2.71;100.00;98856.84;4932987;28;20047;-78
2023/01/16 07:29:10;;;;;;;13.27;9.40;;;;;;;2.69;100.00;98850.78;4947108;28;20053;-79
2023/01/16 07:31:38;;;;;;;12.43;9.45;;;;;;;2.68;100.00;98854.22;4951764;28;20047;-77
2023/01/16 07:34:06;;;;;;;12.90;8.23;;;;;;;2.67;100.00;98849.91;4906562;28;20047;-78
2023/01/16 07:36:33;;;;;;;14.82;8.45;;;;;;;2.66;100.00;98839.50;4922278;28;20065;-78
2023/01/16 07:39:00;;;;;;;10.48;8.05;;;;;;;2.65;100.00;98841.25;4948736;28;20048;-78
2023/01/16 07:41:28;;;;;;;11.63;8.00;;;;;;;2.64;100.00;98841.22;4924638;28;20580;-78
2023/01/16 07:43:56;;;;;;;15.10;9.18;;;;;;;2.64;100.00;98831.69;4918806;28;20081;-78
2023/01/16 07:46:23;;;;;;;13.05;8.00;;;;;;;2.63;100.00;98824.78;4934987;28;20054;-78
2023/01/16 07:48:52;;;;;;;16.63;8.57;;;;;;;2.64;100.00;98825.63;4921786;28;21314;-78
2023/01/16 07:51:20;;;;;;;14.20;8.38;;;;;;;2.63;100.00;98814.38;4946132;28;20046;-78
2023/01/16 07:53:47;;;;;;;16.40;8.13;;;;;;;2.64;100.00;98823.03;4921394;29;20064;-77
2023/01/16 07:56:14;;;;;;;15.55;7.82;;;;;;;2.64;100.00;98826.47;4911517;28;20051;-78
2023/01/16 07:58:42;;;;;;;13.25;8.45;;;;;;;2.63;100.00;98816.97;4947399;28;20062;-77
2023/01/16 08:01:11;;;;;;;16.33;8.23;;;;;;;2.63;100.00;98808.31;4928509;28;20057;-78
2023/01/16 08:03:39;;;;;;;12.95;7.78;;;;;;;2.63;100.00;98806.56;4958043;28;20521;-78
2023/01/16 08:06:07;;;;;;;10.52;7.40;;;;;;;2.64;100.00;98802.22;4877015;29;20508;-78
2023/01/16 08:08:34;;;;;;;11.70;7.13;;;;;;;2.65;100.00;98784.03;4949072;28;20405;-77
2023/01/16 08:11:35;;;;;;;15.93;7.32;;;;;;;2.65;100.00;98780.56;4922940;28;20054;-79
2023/01/16 08:13:51;;;;;;;11.98;6.53;;;;;;;2.67;100.00;98768.44;4943450;28;20678;-78
2023/01/16 08:16:18;;;;;;;13.32;6.85;;;;;;;2.67;100.00;98766.69;4919774;28;20500;-79
2023/01/16 08:18:48;;;;;;;12.50;6.97;;;;;;;2.68;100.00;98755.41;4958547;28;20042;-78
2023/01/16 08:21:16;;;;;;;12.37;6.50;;;;;;;2.69;100.00;98758.91;4920604;28;20066;-79
2023/01/16 08:23:44;;;;;;;11.77;6.75;;;;;;;2.71;100.00;98760.63;4932144;28;20066;-78
2023/01/16 08:26:12;;;;;;;10.60;6.70;;;;;;;2.72;100.00;98748.47;4948426;29;20059;-79
2023/01/16 08:28:40;;;;;;;9.30;7.00;;;;;;;2.74;100.00;98757.16;4934039;28;20062;-77
2023/01/16 08:31:13;;;;;;;12.25;6.88;;;;;;;2.75;100.00;98753.69;4944341;28;21202;-78
2023/01/16 08:33:43;;;;;;;14.05;7.60;;;;;;;2.77;100.00;98756.31;4946706;28;20054;-78
2023/01/16 08:36:11;;;;;;;13.50;7.35;;;;;;;2.77;100.00;98753.69;4913617;28;20050;-78
2023/01/16 08:38:39;;;;;;;12.70;6.55;;;;;;;2.78;100.00;98751.09;4931166;28;20054;-78
2023/01/16 08:51:21;;;;;;;11.63;6.60;;;;;;;2.82;100.00;98745.03;4925069;29;20509;-77
2023/01/16 08:52:13;;;;;;;13.18;7.20;;;;;;;2.90;100.00;98729.44;4911404;28;20055;-78
2023/01/16 08:54:41;;;;;;;7.07;6.38;;;;;;;2.91;100.00;98725.94;4950802;28;20039;-78
2023/01/16 08:57:09;;;;;;;12.45;7.78;;;;;;;2.92;100.00;98712.94;4912585;28;20058;-78
2023/01/16 08:59:37;;;;;;;13.80;7.85;;;;;;;2.96;100.00;98712.94;4953040;28;20043;-78
2023/01/16 09:02:06;;;;;;;12.70;6.60;;;;;;;2.97;100.00;98705.16;4939774;28;20054;-78
2023/01/16 09:04:35;;;;;;;13.88;7.93;;;;;;;2.99;100.00;98703.41;4936366;28;20065;-78
2023/01/16 09:07:03;;;;;;;14.98;6.95;;;;;;;3.02;100.00;98697.31;4899265;28;20066;-78
2023/01/16 09:09:31;;;;;;;10.20;5.75;;;;;;;3.04;100.00;98691.25;4932462;28;20047;-78
2023/01/16 09:14:45;;;;;;;10.43;5.55;;;;;;;3.08;100.00;98672.19;4923809;28;20058;-78
2023/01/16 09:17:12;;;;;;;11.15;5.88;;;;;;;3.10;100.00;98665.25;4941099;28;20043;-78
2023/01/16 09:19:40;;;;;;;9.43;6.13;;;;;;;3.12;100.00;98658.28;4932930;28;20051;-78
2023/01/16 09:22:07;;;;;;;6.53;5.47;;;;;;;3.12;100.00;98653.09;4947874;28;20043;-77
2023/01/16 09:24:35;;;;;;;12.68;6.88;;;;;;;3.14;100.00;98647.88;4897111;29;20079;-77
2023/01/16 09:27:03;;;;;;;10.88;6.47;;;;;;;3.17;100.00;98649.59;4945191;28;20042;-79
2023/01/16 09:29:31;;;;;;;8.85;6.95;;;;;;;3.19;100.00;98637.44;4904636;28;20281;-78
2023/01/16 09:32:00;;;;;;;9.90;7.18;;;;;;;3.19;100.00;98638.31;4919859;28;20062;-79
2023/01/16 09:34:28;;;;;;;11.18;6.03;;;;;;;3.18;100.00;98626.19;4947658;28;20043;-77
2023/01/16 09:36:55;;;;;;;10.55;6.75;;;;;;;3.20;100.00;98626.19;4951543;28;20039;-78
2023/01/16 09:39:23;;;;;;;11.57;5.53;;;;;;;3.18;100.00;98618.38;4917826;28;20031;-78
2023/01/16 09:45:04;;;;;;;10.70;5.30;;;;;;;3.16;100.00;98601.00;4930505;28;20413;-77
2023/01/16 09:47:33;;;;;;;7.00;4.82;;;;;;;3.17;100.00;98587.13;4926162;28;20121;-78
2023/01/16 09:50:17;;;;;;;6.78;4.53;;;;;;;3.16;100.00;98583.69;4946836;28;20035;-78
2023/01/16 09:58:35;;;;;;;8.35;5.32;;;;;;;3.24;100.00;98550.66;4948653;28;20071;-77
2023/01/16 10:01:31;;;;;;;9.32;4.78;;;;;;;3.28;100.00;98547.19;4939461;28;20515;-77
2023/01/16 10:04:14;;;;;;;6.55;5.10;;;;;;;3.31;100.00;98534.16;4941413;28;20062;-77
2023/01/16 10:07:15;;;;;;;4.20;3.47;;;;;;;3.34;100.00;98535.00;4933009;28;20077;-77
2023/01/16 10:10:16;;;;;;;6.10;4.03;;;;;;;3.33;100.00;98531.56;4925288;28;22276;-78
2023/01/16 10:12:58;;;;;;;5.18;3.80;;;;;;;3.34;100.00;98522.84;4944230;28;20047;-77
2023/01/16 10:15:56;;;;;;;6.88;4.10;;;;;;;3.37;100.00;98507.22;4933495;28;20039;-77
2023/01/16 10:18:40;;;;;;;6.22;4.03;;;;;;;3.40;100.00;98514.16;4936701;28;20070;-77
2023/01/16 10:21:27;;;;;;;6.35;3.53;;;;;;;3.41;100.00;98501.13;4944842;28;20416;-77
2023/01/16 10:24:34;;;;;;;10.95;4.10;;;;;;;3.40;100.00;98494.19;4955369;28;20055;-77
2023/01/16 10:27:23;;;;;;;4.88;3.28;;;;;;;3.39;100.00;98486.41;4911379;28;20054;-78
2023/01/16 10:29:57;;;;;;;7.05;4.25;;;;;;;3.39;100.00;98479.44;4946855;28;20050;-78
2023/01/16 10:32:32;;;;;;;4.38;3.47;;;;;;;3.40;100.00;98472.50;4927175;28;20039;-78
2023/01/16 10:35:14;;;;;;;8.13;4.00;;;;;;;3.39;100.00;98468.19;4940168;28;20426;-79
2023/01/16 10:37:44;;;;;;;6.30;3.38;;;;;;;3.40;100.00;98464.69;4944426;28;20077;-77
2023/01/16 10:40:18;;;;;;;4.22;3.45;;;;;;;3.40;100.00;98452.53;4928326;28;20058;-80
2023/01/16 10:51:16;;;;;;;5.82;3.60;;;;;;;3.43;100.00;98425.63;4946314;28;20047;-78
2023/01/16 10:53:45;;;;;;;3.72;3.30;;;;;;;3.43;100.00;98423.88;4944721;28;20062;-78
2023/01/16 10:56:13;;;;;;;5.28;3.15;;;;;;;3.42;100.00;98414.34;4902283;28;20043;-78
2023/01/16 10:58:41;;;;;;;4.53;3.30;;;;;;;3.44;100.00;98410.00;4948339;28;20836;-78
2023/01/16 11:01:17;;;;;;;4.97;2.72;;;;;;;3.46;100.00;98400.44;4935100;28;20051;-78
2023/01/16 11:03:58;;;;;;;3.53;2.55;;;;;;;3.49;100.00;98407.34;4930001;28;20058;-78
2023/01/16 11:06:26;;;;;;;;;;;;;;;3.48;100.00;98403.88;4931972;28;20047;-78
2023/01/16 11:08:55;;;;;;;3.70;2.55;;;;;;;3.48;100.00;98395.22;4946527;28;20388;-78
2023/01/16 11:20:20;;;;;;;3.65;2.30;;;;;;;3.39;100.00;98372.72;4954027;28;20047;-78
2023/01/16 11:22:57;;;;;;;5.20;2.25;;;;;;;3.35;100.00;98367.56;4940978;29;20063;-78
2023/01/16 11:25:27;;;;;;;3.97;1.73;;;;;;;3.30;100.00;98358.00;4943840;28;20062;-78
2023/01/16 11:27:57;;;;;;;4.32;1.70;;;;;;;3.24;100.00;98346.78;4881996;28;20050;-78
2023/01/16 11:30:33;;;;;;;3.38;1.60;;;;;;;3.17;100.00;98338.16;4947293;28;20055;-78
2023/01/16 11:33:06;;;;;;;2.20;1.50;;;;;;;3.12;100.00;98340.81;4937428;28;20847;-78
2023/01/16 11:35:36;;;;;;;2.67;1.40;;;;;;;3.07;100.00;98326.94;4940914;28;20052;-77
2023/01/16 11:38:06;;;;;;;2.90;1.45;;;;;;;3.05;100.00;98318.28;4945130;28;20063;-77
2023/01/16 11:40:43;;;;;;;2.00;1.52;;;;;;;3.02;100.00;98313.09;4914738;28;20055;-78
2023/01/16 11:46:19;;;;;;;3.45;1.83;;;;;;;3.03;100.00;98287.97;4946245;28;20179;-78
2023/01/16 11:48:53;;;;;;;2.72;2.03;;;;;;;3.04;100.00;98280.13;4932900;28;20306;-78
2023/01/16 11:51:27;;;;;;;2.00;1.50;;;;;;;3.03;100.00;98283.63;4943363;28;20054;-77
2023/01/16 11:53:56;;;;;;;6.30;1.92;;;;;;;3.03;100.00;98261.97;4943728;28;20051;-77
2023/01/16 11:57:02;;;;;;;2.00;1.80;;;;;;;3.06;100.00;98259.31;4954182;28;20051;-78
2023/01/16 11:59:48;;;;;;;5.68;2.33;;;;;;;3.07;100.00;98235.88;4891671;28;20058;-78
2023/01/16 12:02:24;;;;;;;1.98;1.77;;;;;;;3.07;100.00;98233.28;4955790;28;20138;-77
2023/01/16 12:08:11;;;;;;;2.92;1.52;;;;;;;3.10;100.00;98211.56;4958753;28;20039;-78
2023/01/16 12:11:01;;;;;;;6.35;1.60;;;;;;;3.12;100.00;98212.44;4928954;28;20059;-78
2023/01/16 12:16:50;;;;;;;4.95;2.15;;;;;;;3.15;100.00;98188.13;4943209;29;20048;-78
2023/01/16 12:19:38;;;;;;;2.35;1.85;;;;;;;3.15;100.00;98188.97;4937254;28;20062;-77
2023/01/16 12:22:21;;;;;;;2.75;1.77;;;;;;;3.15;100.00;98177.72;4932685;28;20047;-77
2023/01/16 12:24:54;;;;;;;3.88;2.00;;;;;;;3.16;100.00;98171.63;4944116;29;20062;-77
2023/01/16 12:27:42;;;;;;;3.55;1.80;;;;;;;3.15;100.00;98157.75;4936841;28;20508;-77
2023/01/16 12:30:30;;;;;;;2.22;1.90;;;;;;;3.16;100.00;98161.19;4914782;29;20059;-77
2023/01/16 12:33:09;;;;;;;1.90;1.80;;;;;;;3.16;100.00;98145.59;4942946;28;20039;-79
2023/01/16 12:35:57;;;;;;;2.42;1.90;;;;;;;3.16;100.00;98136.06;4943723;28;20049;-79
2023/01/16 12:38:54;;;;;;;2.80;1.80;;;;;;;3.17;100.00;98121.31;4946227;29;20051;-78
2023/01/16 12:44:34;;;;;;;2.25;1.65;;;;;;;3.18;100.00;98115.25;4940004;28;20058;-79
2023/01/16 12:47:17;;;;;;;2.40;1.90;;;;;;;3.21;100.00;98120.38;4918710;29;20416;-78
2023/01/16 12:49:53;;;;;;;2.83;1.85;;;;;;;3.21;100.00;98110.84;4938307;28;20128;-79
2023/01/16 12:52:46;;;;;;;2.22;1.80;;;;;;;3.22;100.00;98103.91;4948993;28;20043;-81
2023/01/16 12:55:34;;;;;;;2.40;1.75;;;;;;;3.26;100.00;98095.19;4949083;28;20051;-80
2023/01/16 12:58:19;;;;;;;2.72;1.80;;;;;;;3.28;100.00;98091.66;4920993;29;20056;-79
2023/01/16 13:01:09;;;;;;;3.50;2.03;;;;;;;3.30;100.00;98073.44;4939863;28;20071;-79